Eastland Hill, Pennsylvania
Current Conditions -  °F | °C
As of 10:53 PM on Sunday 21 Dec 2014 (Local Time) from KRYT Reporting Station
Clear Clear  
Wind Chill: 25°   Ceiling: Unl
Heat Index: 25°   Visibility: 8mi
Dew Point: 20°   Wind: 0mph
Humidity: 81%   Direction: NA
Pressure: 30.29"   Gusts: NA
Location:  39.7777°N, 77.5693°W
Report Text: KRYT 220353Z AUTO 00000KT 8SM CLR M04/M07 A3029 RMK AO2 SLP276 T10391067 $
Loading
Personal Weather Stations






























Interactive Weather Map New forecast layout! Learn more

10-Day Weather Forecast

Advertisements
Track Severe Weather on mobile